Time;durP1;ratioP1;P1;durP2;ratioP2;P2;SDS_P1;SDS_P2;PMS_P1;PMS_P2;Temp;Humidity;BMP_temperature;BMP_pressure;BME280_temperature;BME280_humidity;BME280_pressure;Samples;Min_cycle;Max_cycle;Signal;HPM_P1;HPM_P2
2023/04/23 00:01:02;;;;;;;7.33;5.80;;;;;;;16.16;100.00;100612.50;5023550;28;20706;-70
2023/04/23 00:03:31;;;;;;;7.63;5.50;;;;;;;16.04;100.00;100621.22;5022398;28;20254;-70
2023/04/23 00:05:58;;;;;;;8.10;5.93;;;;;;;16.04;100.00;100618.63;5018325;28;20242;-71
2023/04/23 00:08:23;;;;;;;7.83;6.00;;;;;;;16.02;100.00;100611.75;5018828;28;20314;-71
2023/04/23 00:10:49;;;;;;;5.87;5.27;;;;;;;16.02;100.00;100607.44;5022329;28;20257;-71
2023/04/23 00:13:15;;;;;;;7.13;5.27;;;;;;;16.03;100.00;100611.72;5019621;28;20211;-74
2023/04/23 00:15:40;;;;;;;7.83;6.40;;;;;;;15.98;100.00;100600.56;5022509;28;20591;-70
2023/04/23 00:18:06;;;;;;;7.87;6.27;;;;;;;15.98;100.00;100607.47;5020371;28;20313;-71
2023/04/23 00:20:34;;;;;;;7.40;6.07;;;;;;;15.99;100.00;100598.84;5019927;28;20186;-71
2023/04/23 00:23:00;;;;;;;6.63;5.70;;;;;;;15.86;100.00;100607.53;5017721;28;20191;-72
2023/04/23 00:25:25;;;;;;;7.43;5.80;;;;;;;15.73;100.00;100606.75;5015461;28;20273;-72
2023/04/23 00:27:51;;;;;;;6.17;5.50;;;;;;;15.80;100.00;100605.81;5022898;28;20209;-72
2023/04/23 00:30:17;;;;;;;7.03;5.43;;;;;;;15.75;100.00;100599.84;5015756;28;20202;-70
2023/04/23 00:32:43;;;;;;;7.60;6.20;;;;;;;15.64;100.00;100605.91;5020988;28;20198;-70
2023/04/23 00:35:09;;;;;;;6.93;5.80;;;;;;;15.68;100.00;100611.06;5019362;28;20657;-71
2023/04/23 00:37:35;;;;;;;7.50;6.20;;;;;;;15.67;100.00;100608.50;5013311;28;20198;-71
2023/04/23 00:40:01;;;;;;;7.60;5.63;;;;;;;15.60;100.00;100606.78;5001473;28;20253;-71
2023/04/23 00:42:27;;;;;;;7.67;6.17;;;;;;;15.59;100.00;100615.41;5020244;28;20190;-71
2023/04/23 00:44:53;;;;;;;7.60;6.23;;;;;;;15.51;100.00;100615.44;5023875;28;21012;-70
2023/04/23 00:47:19;;;;;;;7.30;6.43;;;;;;;15.46;100.00;100608.59;5021148;28;20221;-71
2023/04/23 00:49:45;;;;;;;9.07;6.63;;;;;;;15.47;100.00;100605.16;5020835;28;20214;-71
2023/04/23 00:52:11;;;;;;;7.17;6.47;;;;;;;15.35;100.00;100606.06;5018638;28;20198;-73
2023/04/23 00:54:36;;;;;;;6.70;6.00;;;;;;;15.34;100.00;100600.91;5004871;28;20673;-71
2023/04/23 00:57:02;;;;;;;6.97;6.23;;;;;;;15.36;100.00;100592.28;4999900;28;20611;-71
2023/04/23 00:59:30;;;;;;;7.60;6.57;;;;;;;15.32;100.00;100595.72;5021643;28;20215;-72
2023/04/23 01:01:58;;;;;;;6.50;5.90;;;;;;;15.34;100.00;100593.16;5007422;28;20909;-72
2023/04/23 01:04:26;;;;;;;7.80;6.17;;;;;;;15.36;100.00;100586.25;5019751;28;20206;-72
2023/04/23 01:06:53;;;;;;;7.83;6.20;;;;;;;15.32;100.00;100584.53;5019758;28;20205;-72
2023/04/23 01:09:19;;;;;;;7.07;6.37;;;;;;;15.27;100.00;100588.84;5015746;28;20222;-71
2023/04/23 01:11:46;;;;;;;8.17;5.93;;;;;;;15.20;100.00;100590.59;4984087;28;20195;-71
2023/04/23 01:14:11;;;;;;;7.17;6.47;;;;;;;15.19;100.00;100590.63;5022229;28;20237;-72
2023/04/23 01:16:37;;;;;;;9.07;6.67;;;;;;;15.12;100.00;100594.94;5022277;28;20195;-72
2023/04/23 01:19:07;;;;;;;7.13;6.43;;;;;;;15.14;100.00;100590.63;5016808;28;20226;-71
2023/04/23 01:21:34;;;;;;;7.40;6.43;;;;;;;15.11;100.00;100595.78;5017006;28;20194;-73
2023/04/23 01:24:01;;;;;;;8.00;7.17;;;;;;;15.10;100.00;100595.81;5015672;28;20696;-70
2023/04/23 01:26:26;;;;;;;7.40;6.30;;;;;;;15.08;100.00;100597.50;5009091;28;20655;-74
2023/04/23 01:28:52;;;;;;;7.23;6.43;;;;;;;15.10;100.00;100598.38;5008887;28;20210;-72
2023/04/23 01:31:18;;;;;;;8.53;6.20;;;;;;;15.02;100.00;100595.84;5013215;28;20746;-71
2023/04/23 01:33:44;;;;;;;7.97;6.90;;;;;;;15.07;100.00;100595.81;5010705;28;20281;-71
2023/04/23 01:36:10;;;;;;;6.97;6.27;;;;;;;15.07;100.00;100594.09;5026731;28;20195;-72
2023/04/23 01:38:37;;;;;;;7.23;6.47;;;;;;;15.04;100.00;100593.22;5014669;28;20231;-73
2023/04/23 01:41:02;;;;;;;7.50;6.30;;;;;;;15.04;100.00;100588.94;5019209;28;20195;-72
2023/04/23 01:43:28;;;;;;;7.03;6.33;;;;;;;15.03;100.00;100589.81;5023994;28;20677;-73
2023/04/23 01:45:54;;;;;;;7.00;6.30;;;;;;;15.00;100.00;100592.38;5025770;28;20198;-72
2023/04/23 01:48:20;;;;;;;7.40;6.63;;;;;;;14.95;100.00;100593.25;5006747;28;20843;-73
2023/04/23 01:50:47;;;;;;;7.67;6.83;;;;;;;14.98;100.00;100588.09;5014257;28;20289;-73
2023/04/23 01:53:12;;;;;;;8.80;6.80;;;;;;;14.97;100.00;100596.69;5022132;28;20221;-71
2023/04/23 01:55:39;;;;;;;9.40;6.80;;;;;;;14.87;100.00;100595.84;5023650;28;20191;-73
2023/04/23 01:58:05;;;;;;;9.13;7.07;;;;;;;14.88;100.00;100596.72;5006599;28;20332;-72
2023/04/23 02:00:30;;;;;;;8.30;7.50;;;;;;;14.93;100.00;100594.97;5010817;28;20202;-75
2023/04/23 02:02:56;;;;;;;9.37;7.30;;;;;;;14.93;100.00;100589.81;5019475;28;20218;-72
2023/04/23 02:05:23;;;;;;;8.13;7.27;;;;;;;14.90;100.00;100593.28;5018881;28;20313;-72
2023/04/23 02:07:49;;;;;;;8.77;7.67;;;;;;;14.87;100.00;100597.59;5016429;28;20676;-73
2023/04/23 02:10:15;;;;;;;10.33;8.10;;;;;;;14.86;100.00;100595.84;5017818;28;20724;-72
2023/04/23 02:12:41;;;;;;;9.17;7.87;;;;;;;14.87;100.00;100592.44;5021852;28;20278;-73
2023/04/23 02:15:09;;;;;;;10.43;7.63;;;;;;;14.87;100.00;100595.00;5011919;28;20182;-72
2023/04/23 02:17:34;;;;;;;12.23;8.27;;;;;;;14.83;100.00;100586.38;5022121;28;20245;-71
2023/04/23 02:20:00;;;;;;;10.17;8.70;;;;;;;14.85;100.00;100589.84;5017841;28;20207;-72
2023/04/23 02:22:27;;;;;;;9.57;8.67;;;;;;;14.82;100.00;100591.59;5010392;28;20286;-72
2023/04/23 02:24:54;;;;;;;9.83;8.93;;;;;;;14.83;100.00;100585.56;5008438;28;20210;-72
2023/04/23 02:27:20;;;;;;;11.33;9.57;;;;;;;14.78;100.00;100595.03;5019617;28;20235;-74
2023/04/23 02:29:46;;;;;;;11.73;9.03;;;;;;;14.71;100.00;100589.00;5009949;28;20211;-73
2023/04/23 02:32:11;;;;;;;9.70;8.53;;;;;;;14.72;100.00;100593.28;5022026;28;20195;-72
2023/04/23 02:34:37;;;;;;;11.33;9.77;;;;;;;14.69;100.00;100593.28;5023402;28;20214;-71
2023/04/23 02:37:06;;;;;;;10.07;9.07;;;;;;;14.69;100.00;100598.44;5006209;28;20195;-71
2023/04/23 02:39:32;;;;;;;11.63;9.93;;;;;;;14.67;100.00;100594.16;5024894;28;20623;-73
2023/04/23 02:41:58;;;;;;;11.10;9.90;;;;;;;14.65;100.00;100596.72;5003425;28;20194;-72
2023/04/23 02:44:24;;;;;;;11.50;10.00;;;;;;;14.66;100.00;100585.59;5020414;28;20219;-71
2023/04/23 02:46:50;;;;;;;11.43;10.03;;;;;;;14.65;100.00;100588.16;5023063;28;20191;-70
2023/04/23 02:49:16;;;;;;;11.47;10.33;;;;;;;14.69;100.00;100605.34;5018143;28;20219;-72
2023/04/23 02:51:42;;;;;;;19.80;16.27;;;;;;;14.41;100.00;100621.69;5018309;28;20190;-70
2023/04/23 02:54:08;;;;;;;21.07;18.43;;;;;;;14.06;100.00;100626.75;5008151;28;20202;-72
2023/04/23 02:56:33;;;;;;;21.23;18.50;;;;;;;13.87;100.00;100617.28;5006444;28;20194;-71
2023/04/23 02:59:00;;;;;;;20.97;18.77;;;;;;;13.79;100.00;100628.38;5007797;28;20561;-72
2023/04/23 03:01:25;;;;;;;23.20;20.70;;;;;;;13.78;100.00;100624.97;5006175;28;20191;-71
2023/04/23 03:03:51;;;;;;;23.77;20.83;;;;;;;13.63;100.00;100637.78;5003247;28;20225;-71
2023/04/23 03:06:17;;;;;;;24.50;21.50;;;;;;;13.51;100.00;100639.44;5001512;28;20643;-71
2023/04/23 03:08:43;;;;;;;25.43;22.13;;;;;;;13.42;100.00;100640.28;5007251;28;20211;-72
2023/04/23 03:11:08;;;;;;;27.67;23.73;;;;;;;13.28;100.00;100633.34;5020899;28;20679;-70
2023/04/23 03:13:34;;;;;;;28.13;23.53;;;;;;;13.24;100.00;100645.31;5010201;28;20721;-71
2023/04/23 03:15:59;;;;;;;28.57;24.43;;;;;;;13.25;100.00;100643.63;5022811;28;20341;-72
2023/04/23 03:18:25;;;;;;;29.07;25.07;;;;;;;13.16;100.00;100639.28;5019873;28;20214;-71
2023/04/23 03:20:52;;;;;;;28.87;25.37;;;;;;;13.13;100.00;100654.69;5006381;28;20190;-70
2023/04/23 03:23:18;;;;;;;30.50;24.93;;;;;;;13.05;100.00;100653.78;5022226;28;20544;-72
2023/04/23 03:25:45;;;;;;;30.83;25.60;;;;;;;13.02;100.00;100658.06;5006889;28;20186;-71
2023/04/23 03:28:10;;;;;;;29.43;26.23;;;;;;;12.91;100.00;100663.91;5024134;28;20648;-71
2023/04/23 03:30:36;;;;;;;32.60;27.30;;;;;;;12.91;100.00;100661.34;5010158;28;20199;-71
2023/04/23 03:33:01;;;;;;;34.37;28.13;;;;;;;12.87;100.00;100669.03;5008678;28;20203;-71
2023/04/23 03:35:27;;;;;;;33.40;27.63;;;;;;;12.89;100.00;100662.19;5020981;28;21517;-72
2023/04/23 03:37:55;;;;;;;38.77;31.73;;;;;;;12.83;100.00;100663.03;5005954;28;20206;-75
2023/04/23 03:40:22;;;;;;;38.20;30.13;;;;;;;12.81;100.00;100672.41;5007414;28;20195;-72
2023/04/23 03:42:51;;;;;;;34.70;29.10;;;;;;;12.74;100.00;100669.78;4965511;28;1143542;-72
2023/04/23 03:45:21;;;;;;;37.47;30.33;;;;;;;12.63;100.00;100669.72;5005266;28;20613;-72
2023/04/23 03:47:46;;;;;;;38.53;30.43;;;;;;;12.52;100.00;100670.47;5004035;28;20226;-71
2023/04/23 03:50:12;;;;;;;38.73;31.20;;;;;;;12.47;100.00;100674.69;5010069;28;20244;-71
2023/04/23 03:52:39;;;;;;;42.67;32.53;;;;;;;12.42;100.00;100674.69;5009210;28;20440;-71
2023/04/23 03:55:09;;;;;;;39.60;31.10;;;;;;;12.38;100.00;100666.91;5009270;28;20187;-71
2023/04/23 03:57:39;;;;;;;41.27;32.50;;;;;;;12.32;100.00;100666.88;5010646;28;20194;-72
2023/04/23 04:00:18;;;;;;;46.40;35.37;;;;;;;12.28;100.00;100672.81;5008981;28;20190;-71
2023/04/23 04:02:43;;;;;;;47.37;36.23;;;;;;;12.23;100.00;100672.78;5019351;28;20687;-70
2023/04/23 04:05:12;;;;;;;48.80;36.00;;;;;;;12.22;100.00;100673.59;5016620;28;20222;-72
2023/04/23 04:07:37;;;;;;;47.93;36.67;;;;;;;12.12;100.00;100686.34;5007880;28;20194;-71
2023/04/23 04:10:05;;;;;;;52.00;38.33;;;;;;;12.08;100.00;100682.88;5020594;28;20198;-71
2023/04/23 04:12:31;;;;;;;51.27;38.90;;;;;;;12.07;100.00;100686.28;5023707;28;20647;-73
2023/04/23 04:14:56;;;;;;;51.80;39.93;;;;;;;12.02;100.00;100679.38;5003062;28;20207;-72
2023/04/23 04:17:22;;;;;;;49.77;37.90;;;;;;;12.10;100.00;100688.91;5020070;28;20191;-72
2023/04/23 04:19:47;;;;;;;44.67;34.87;;;;;;;12.00;100.00;100686.22;5017269;28;20683;-72
2023/04/23 04:22:14;;;;;;;45.87;35.90;;;;;;;11.94;100.00;100683.59;5021364;28;20186;-72
2023/04/23 04:24:40;;;;;;;49.37;37.00;;;;;;;11.92;100.00;100690.38;5016304;28;20254;-71
2023/04/23 04:27:06;;;;;;;48.33;36.13;;;;;;;11.84;100.00;100685.19;5018096;28;20241;-72
2023/04/23 04:29:32;;;;;;;41.87;33.40;;;;;;;11.79;100.00;100697.09;5019873;28;20222;-72
2023/04/23 04:31:58;;;;;;;41.73;33.53;;;;;;;11.80;100.00;100701.38;5018661;28;20191;-72
2023/04/23 04:34:24;;;;;;;44.00;34.23;;;;;;;11.78;100.00;100697.06;5004464;28;20560;-72
2023/04/23 04:36:52;;;;;;;41.87;33.23;;;;;;;11.73;100.00;100711.53;5014880;28;20238;-75
2023/04/23 04:39:18;;;;;;;43.50;33.93;;;;;;;11.72;100.00;100720.97;4998763;28;20377;-75
2023/04/23 04:41:44;;;;;;;44.70;34.80;;;;;;;11.70;100.00;100730.31;4999211;28;20558;-73
2023/04/23 04:44:10;;;;;;;47.83;34.67;;;;;;;11.70;100.00;100727.75;5018297;28;20223;-73
2023/04/23 04:46:39;;;;;;;45.10;33.67;;;;;;;11.67;100.00;100724.28;5019370;28;20338;-72
2023/04/23 04:49:07;;;;;;;46.17;34.40;;;;;;;11.71;100.00;100720.94;5018620;28;20680;-73
2023/04/23 04:51:33;;;;;;;41.60;31.80;;;;;;;11.63;100.00;100722.53;5025082;28;20199;-72
2023/04/23 04:53:58;;;;;;;42.67;28.73;;;;;;;11.60;100.00;100725.03;5020792;28;20237;-73
2023/04/23 04:56:24;;;;;;;35.53;27.30;;;;;;;11.58;100.00;100730.16;5018479;28;20605;-72
2023/04/23 04:58:50;;;;;;;35.30;27.40;;;;;;;11.56;100.00;100736.09;5019929;28;20230;-72
2023/04/23 05:01:17;;;;;;;35.40;26.23;;;;;;;11.54;100.00;100737.75;5016867;28;20202;-73
2023/04/23 05:03:43;;;;;;;32.70;26.07;;;;;;;11.54;100.00;100737.75;5019488;28;20225;-70
2023/04/23 05:06:08;;;;;;;29.83;23.93;;;;;;;11.54;100.00;100745.47;5018140;28;20198;-72
2023/04/23 05:08:34;;;;;;;31.50;25.40;;;;;;;11.54;100.00;100745.47;5017647;28;20768;-72
2023/04/23 05:11:00;;;;;;;31.60;24.03;;;;;;;11.52;100.00;100747.16;5017669;28;20202;-71
2023/04/23 05:13:26;;;;;;;29.10;21.60;;;;;;;11.51;100.00;100758.22;5026924;28;20202;-70
2023/04/23 05:15:51;;;;;;;28.73;21.33;;;;;;;11.46;100.00;100758.16;5020110;28;20555;-73
2023/04/23 05:18:17;;;;;;;25.60;21.30;;;;;;;11.51;100.00;100759.09;5016305;28;20309;-71
2023/04/23 05:20:42;;;;;;;26.20;19.93;;;;;;;11.56;100.00;100769.44;5018263;28;20268;-75
2023/04/23 05:23:07;;;;;;;25.30;20.33;;;;;;;11.54;100.00;100763.41;5016989;28;20186;-71
2023/04/23 05:25:34;;;;;;;24.17;19.77;;;;;;;11.56;100.00;100762.59;5016321;28;20230;-70
2023/04/23 05:28:00;;;;;;;23.83;18.77;;;;;;;11.55;100.00;100766.00;5017898;28;20225;-73
2023/04/23 05:30:26;;;;;;;23.90;19.83;;;;;;;11.56;100.00;100775.41;5019272;28;20278;-73
2023/04/23 05:32:51;;;;;;;20.30;17.00;;;;;;;11.56;100.00;100779.69;5017569;28;20198;-72
2023/04/23 05:35:17;;;;;;;23.23;17.40;;;;;;;11.57;100.00;100779.69;5022913;28;20190;-71
2023/04/23 05:37:42;;;;;;;20.93;17.60;;;;;;;11.58;100.00;100778.00;5025055;28;20190;-72
2023/04/23 05:40:09;;;;;;;20.40;16.67;;;;;;;11.62;100.00;100787.50;5020032;28;20257;-71
2023/04/23 05:42:35;;;;;;;22.27;15.47;;;;;;;11.64;100.00;100786.69;5017158;28;20194;-73
2023/04/23 05:45:01;;;;;;;19.70;15.03;;;;;;;11.67;100.00;100786.72;5025411;28;20207;-72
2023/04/23 05:47:28;;;;;;;17.83;14.70;;;;;;;11.65;100.00;100792.66;5017863;28;20227;-71
2023/04/23 05:49:56;;;;;;;16.73;14.53;;;;;;;11.67;100.00;100789.28;5020120;28;20229;-72
2023/04/23 05:52:22;;;;;;;19.23;14.57;;;;;;;11.61;100.00;100793.47;5022112;28;20281;-73
2023/04/23 05:54:47;;;;;;;18.77;15.13;;;;;;;11.67;100.00;100796.13;5017055;28;20194;-72
2023/04/23 05:57:13;;;;;;;17.53;13.67;;;;;;;11.69;100.00;100803.00;5019351;28;20613;-69
2023/04/23 05:59:38;;;;;;;14.70;12.77;;;;;;;11.71;100.00;100803.84;5021525;28;20798;-69
2023/04/23 06:02:04;;;;;;;14.87;13.33;;;;;;;11.75;100.00;100789.41;5019597;28;20208;-71
2023/04/23 06:04:30;;;;;;;15.63;13.20;;;;;;;11.75;100.00;100794.53;5019597;28;20297;-71
2023/04/23 06:06:55;;;;;;;14.10;11.43;;;;;;;11.76;100.00;100796.25;5017032;28;20191;-71
2023/04/23 06:09:21;;;;;;;14.57;11.50;;;;;;;11.74;100.00;100796.22;5025695;28;20221;-72
2023/04/23 06:11:49;;;;;;;12.67;10.13;;;;;;;11.78;100.00;100794.53;5023581;28;20286;-71
2023/04/23 06:14:15;;;;;;;14.77;11.00;;;;;;;11.75;100.00;100797.09;5006704;28;20672;-71
2023/04/23 06:16:40;;;;;;;15.67;10.67;;;;;;;11.78;100.00;100798.00;5029330;28;20194;-71
2023/04/23 06:19:06;;;;;;;12.73;10.03;;;;;;;11.72;100.00;100794.47;5011029;28;20241;-72
2023/04/23 06:21:31;;;;;;;12.33;9.50;;;;;;;11.70;100.00;100796.16;5026355;28;20189;-71
2023/04/23 06:23:57;;;;;;;12.27;9.60;;;;;;;11.65;100.00;100798.66;5030079;28;20229;-70
2023/04/23 06:26:22;;;;;;;12.73;9.93;;;;;;;11.64;100.00;100801.19;5031260;28;20652;-72
2023/04/23 06:28:50;;;;;;;13.07;10.10;;;;;;;11.58;100.00;100808.78;5012572;28;20198;-71
2023/04/23 06:31:30;;;;;;;13.00;9.33;;;;;;;11.50;100.00;100813.78;5026006;28;20192;-70
2023/04/23 06:33:56;;;;;;;11.03;9.53;;;;;;;11.51;100.00;100809.50;5027717;28;20281;-72
2023/04/23 06:36:21;;;;;;;14.37;10.63;;;;;;;11.50;100.00;100810.34;5029488;28;20234;-70
2023/04/23 06:38:47;;;;;;;11.07;9.97;;;;;;;11.50;100.00;100813.78;5028766;28;20233;-71
2023/04/23 06:41:12;;;;;;;13.40;10.07;;;;;;;11.57;100.00;100819.88;5030483;28;20836;-71
2023/04/23 06:43:38;;;;;;;11.57;9.93;;;;;;;11.67;100.00;100817.50;5009868;28;20199;-71
2023/04/23 06:46:22;;;;;;;11.77;9.40;;;;;;;11.68;100.00;100824.34;5009029;28;20201;-71
2023/04/23 06:48:48;;;;;;;9.67;8.43;;;;;;;11.67;100.00;100825.22;5019735;28;20198;-74
2023/04/23 06:51:14;;;;;;;9.73;8.17;;;;;;;11.61;100.00;100822.53;5027519;28;20329;-72
2023/04/23 06:53:40;;;;;;;10.07;8.13;;;;;;;11.62;100.00;100831.94;5026786;28;20223;-72
2023/04/23 06:56:06;;;;;;;9.87;8.17;;;;;;;11.63;100.00;100826.00;5029731;28;20618;-72
2023/04/23 06:58:32;;;;;;;9.40;8.23;;;;;;;11.62;100.00;100831.94;5029404;28;20218;-72
2023/04/23 07:01:06;;;;;;;9.03;7.50;;;;;;;11.63;100.00;100818.31;5011115;28;20666;-71
2023/04/23 07:03:32;;;;;;;8.80;7.00;;;;;;;11.62;100.00;100824.25;5002323;28;20182;-74
2023/04/23 07:05:58;;;;;;;9.17;7.40;;;;;;;11.62;100.00;100820.84;5028358;28;20552;-73
2023/04/23 07:08:24;;;;;;;9.77;6.90;;;;;;;11.58;100.00;100836.97;5028730;28;20218;-74
2023/04/23 07:10:50;;;;;;;9.83;7.20;;;;;;;11.66;100.00;100831.16;5026537;28;20184;-72
2023/04/23 07:13:16;;;;;;;8.00;7.00;;;;;;;11.75;100.00;100828.72;5024858;28;20206;-72
2023/04/23 07:15:42;;;;;;;8.50;6.63;;;;;;;11.72;100.00;100825.25;5026579;28;20202;-74
2023/04/23 07:18:08;;;;;;;8.53;6.77;;;;;;;11.76;100.00;100824.47;5029705;28;20221;-73
2023/04/23 07:20:33;;;;;;;9.17;5.87;;;;;;;11.70;100.00;100812.41;5024342;28;20265;-73
2023/04/23 07:22:59;;;;;;;6.77;5.57;;;;;;;11.72;100.00;100821.00;5020938;28;20796;-74
2023/04/23 07:25:26;;;;;;;6.67;5.50;;;;;;;11.79;100.00;100819.34;5025462;28;20210;-73
2023/04/23 07:27:53;;;;;;;7.97;6.23;;;;;;;11.82;100.00;100820.28;5028427;28;20706;-72
2023/04/23 07:30:19;;;;;;;7.80;5.60;;;;;;;11.91;100.00;100819.53;5020538;28;20223;-72
2023/04/23 07:32:45;;;;;;;7.27;5.93;;;;;;;11.93;100.00;100816.16;5025963;28;20652;-73
2023/04/23 07:35:10;;;;;;;7.33;6.07;;;;;;;11.96;100.00;100818.75;5030076;28;20202;-73
2023/04/23 07:37:36;;;;;;;7.37;5.93;;;;;;;12.06;100.00;100815.47;5026939;28;20668;-75
2023/04/23 07:40:04;;;;;;;7.70;6.20;;;;;;;12.17;100.00;100818.19;5029708;28;20255;-71
2023/04/23 07:42:30;;;;;;;6.80;5.63;;;;;;;12.24;100.00;100802.88;5026833;28;20668;-72
2023/04/23 07:44:55;;;;;;;10.03;6.63;;;;;;;12.33;100.00;100794.41;5025785;28;20233;-72
2023/04/23 07:47:21;;;;;;;7.57;6.53;;;;;;;12.43;100.00;100788.50;5025501;28;20190;-72
2023/04/23 07:49:46;;;;;;;7.80;6.73;;;;;;;12.62;100.00;100787.84;5026715;28;20228;-74
2023/04/23 07:52:11;;;;;;;8.77;6.40;;;;;;;12.68;100.00;100780.22;5022596;28;20226;-72
2023/04/23 07:54:37;;;;;;;8.83;6.33;;;;;;;12.75;100.00;100777.72;5005788;28;20199;-73
2023/04/23 07:57:02;;;;;;;7.13;5.90;;;;;;;12.88;100.00;100771.00;5021799;28;20197;-73
2023/04/23 07:59:28;;;;;;;8.80;6.40;;;;;;;12.99;100.00;100778.84;5020874;28;20264;-72
2023/04/23 08:01:54;;;;;;;6.70;6.00;;;;;;;12.93;100.00;100770.19;5023784;28;20232;-71
2023/04/23 08:04:19;;;;;;;9.00;6.10;;;;;;;13.03;100.00;100768.56;5028594;28;20206;-74
2023/04/23 08:06:45;;;;;;;9.43;6.53;;;;;;;12.99;100.00;100778.84;5021949;28;20198;-73
2023/04/23 08:09:10;;;;;;;8.97;6.23;;;;;;;13.06;100.00;100776.31;5027123;28;20221;-72
2023/04/23 08:11:36;;;;;;;7.03;6.30;;;;;;;12.94;100.00;100768.47;5025279;28;20683;-72
2023/04/23 08:14:01;;;;;;;6.43;5.73;;;;;;;13.27;100.00;100716.47;5019528;28;20183;-73
2023/04/23 08:16:27;;;;;;;7.27;5.80;;;;;;;13.53;100.00;100674.59;5020069;28;20667;-72
2023/04/23 08:18:52;;;;;;;6.77;5.10;;;;;;;13.80;100.00;100646.41;5024553;28;20210;-72
2023/04/23 08:21:18;;;;;;;6.37;5.40;;;;;;;13.86;100.00;100601.81;5023668;28;20213;-74
2023/04/23 08:23:44;;;;;;;5.40;4.83;;;;;;;13.46;100.00;100584.53;5007569;28;20707;-72
2023/04/23 08:26:09;;;;;;;7.07;5.20;;;;;;;13.68;100.00;100630.09;5028544;28;20226;-72
2023/04/23 08:28:35;;;;;;;6.60;5.90;;;;;;;14.10;100.00;100600.16;5021230;28;20210;-72
2023/04/23 08:31:00;;;;;;;5.60;4.63;;;;;;;14.30;100.00;100557.28;5021628;28;20195;-72
2023/04/23 08:33:26;;;;;;;6.50;5.20;;;;;;;14.50;100.00;100552.94;5024227;28;20356;-76
2023/04/23 08:35:52;;;;;;;7.00;5.07;;;;;;;14.60;100.00;100536.59;5026742;28;20186;-71
2023/04/23 08:38:17;;;;;;;6.73;4.73;;;;;;;14.64;100.00;100522.00;5025741;28;20612;-76
2023/04/23 08:40:44;;;;;;;5.83;5.23;;;;;;;14.84;100.00;100509.91;5025452;28;20190;-73
2023/04/23 08:43:19;;;;;;;7.73;5.93;;;;;;;14.57;100.00;100518.59;5010963;28;20206;-70
2023/04/23 08:45:48;;;;;;;6.87;5.40;;;;;;;14.67;100.00;100522.00;5021046;28;20222;-71
2023/04/23 08:48:14;;;;;;;6.70;5.67;;;;;;;14.65;100.00;100588.16;5019116;28;20257;-71
2023/04/23 08:50:43;;;;;;;7.70;5.47;;;;;;;14.72;100.00;100564.94;5025646;28;20198;-72
2023/04/23 08:53:09;;;;;;;6.60;5.03;;;;;;;14.61;100.00;100540.94;4998021;28;20257;-72
2023/04/23 08:55:35;;;;;;;7.90;5.73;;;;;;;14.78;100.00;100539.16;5012931;28;20213;-70
2023/04/23 08:58:05;;;;;;;7.13;5.60;;;;;;;14.69;100.00;100546.06;5026144;28;20782;-70
2023/04/23 09:00:31;;;;;;;7.17;5.53;;;;;;;14.76;100.00;100521.97;5022205;28;20206;-70
2023/04/23 09:02:57;;;;;;;7.03;4.77;;;;;;;14.93;100.00;100495.28;5022180;28;20195;-72
2023/04/23 09:05:22;;;;;;;6.33;5.13;;;;;;;15.36;100.00;100427.16;5023914;28;20215;-71
2023/04/23 09:07:48;;;;;;;8.17;5.63;;;;;;;15.58;100.00;100438.19;5025711;28;20222;-72
2023/04/23 09:10:13;;;;;;;6.43;5.83;;;;;;;14.98;100.00;100416.19;5027484;28;20277;-71
2023/04/23 09:12:42;;;;;;;12.70;6.60;;;;;;;15.54;100.00;100428.75;5012381;28;20297;-72
2023/04/23 09:15:12;;;;;;;7.33;5.30;;;;;;;15.85;100.00;100438.84;4999369;28;20514;-71
2023/04/23 09:17:41;;;;;;;6.37;5.63;;;;;;;15.60;100.00;100426.09;4998160;28;20306;-73
2023/04/23 09:20:10;;;;;;;7.83;5.43;;;;;;;16.31;100.00;100421.16;5004192;28;20307;-71
2023/04/23 09:22:45;;;;;;;9.23;5.90;;;;;;;16.01;100.00;100395.63;5002617;28;20205;-72
2023/04/23 09:25:13;;;;;;;7.73;6.17;;;;;;;16.50;100.00;100356.34;5026498;28;20221;-72
2023/04/23 09:27:38;;;;;;;7.57;6.40;;;;;;;17.00;100.00;100276.31;5017826;28;20206;-70
2023/04/23 09:30:06;;;;;;;7.53;6.33;;;;;;;16.89;99.58;100239.41;5022885;28;20222;-71
2023/04/23 09:32:36;;;;;;;8.03;6.20;;;;;;;16.55;100.00;100253.75;5021470;28;20252;-71
2023/04/23 09:35:07;;;;;;;7.77;6.20;;;;;;;16.50;95.22;100201.25;5023501;28;20210;-72
2023/04/23 09:37:33;;;;;;;6.40;5.80;;;;;;;16.96;100.00;100264.31;5024675;28;20256;-72
2023/04/23 09:40:04;;;;;;;7.07;6.37;;;;;;;17.63;96.12;100187.22;5025125;28;20193;-69
2023/04/23 09:42:32;;;;;;;6.90;5.93;;;;;;;18.23;98.39;100185.09;5019424;28;20286;-75
2023/04/23 09:45:05;;;;;;;7.23;6.53;;;;;;;18.63;87.36;100095.97;5023085;28;20270;-71
2023/04/23 09:47:32;;;;;;;8.23;6.63;;;;;;;18.50;87.49;100093.72;5025485;28;20198;-73
2023/04/23 09:49:58;;;;;;;11.00;6.80;;;;;;;18.52;90.02;100104.91;5028322;28;20201;-70
2023/04/23 09:52:23;;;;;;;7.50;6.77;;;;;;;18.16;88.64;100116.13;5029139;28;20985;-70
2023/04/23 09:54:49;;;;;;;9.43;6.97;;;;;;;18.72;87.55;100119.09;5029882;28;20257;-71
2023/04/23 09:57:15;;;;;;;7.97;6.93;;;;;;;18.36;88.62;100112.22;5026081;28;20202;-71
2023/04/23 09:59:41;;;;;;;7.97;6.33;;;;;;;18.27;84.00;100089.06;5019951;28;20742;-69
2023/04/23 10:02:08;;;;;;;7.67;6.73;;;;;;;19.16;82.69;100085.03;5023191;28;20258;-74
2023/04/23 10:04:34;;;;;;;6.50;5.80;;;;;;;19.66;72.07;100009.13;5026106;28;20256;-71
2023/04/23 10:07:03;;;;;;;8.50;7.30;;;;;;;18.70;72.99;100011.91;5030580;28;20225;-71
2023/04/23 10:09:30;;;;;;;7.60;6.53;;;;;;;19.02;79.22;100074.16;5026987;28;20252;-70
2023/04/23 10:11:58;;;;;;;7.73;6.57;;;;;;;19.49;75.40;100045.13;5029278;28;20221;-72
2023/04/23 10:14:25;;;;;;;7.97;6.90;;;;;;;19.43;77.49;100062.69;5026191;28;20190;-72
2023/04/23 10:16:56;;;;;;;7.87;6.90;;;;;;;19.30;74.63;100035.34;5028312;28;20723;-72
2023/04/23 10:19:22;;;;;;;8.50;6.50;;;;;;;19.24;76.30;100069.25;5027995;28;20313;-71
2023/04/23 10:22:03;;;;;;;8.90;7.07;;;;;;;19.91;72.55;100033.47;5025661;28;20186;-72
2023/04/23 10:24:32;;;;;;;7.90;7.10;;;;;;;19.52;65.23;99956.75;5031289;28;20245;-71
2023/04/23 10:27:03;;;;;;;8.53;7.43;;;;;;;19.84;68.31;99990.34;5026226;28;20195;-70
2023/04/23 10:29:33;;;;;;;8.80;7.90;;;;;;;19.91;70.61;99999.66;5027682;28;20244;-72
2023/04/23 10:32:00;;;;;;;10.07;7.93;;;;;;;19.33;66.44;99988.50;5026257;28;20190;-71
2023/04/23 10:34:27;;;;;;;9.07;8.17;;;;;;;18.87;62.63;99991.56;5030799;28;20202;-70
2023/04/23 10:36:53;;;;;;;9.63;7.77;;;;;;;18.45;66.76;100029.00;5028807;28;20190;-73
2023/04/23 10:39:20;;;;;;;8.57;6.97;;;;;;;19.55;64.47;100012.94;5021560;28;20226;-74
2023/04/23 10:41:47;;;;;;;8.30;6.43;;;;;;;19.17;61.07;99962.09;5012836;28;20198;-71
2023/04/23 10:44:15;;;;;;;7.00;6.17;;;;;;;20.29;59.52;99957.69;5027058;28;20340;-72
2023/04/23 10:46:51;;;;;;;8.40;7.10;;;;;;;20.63;58.95;99953.00;5023631;28;21025;-71
2023/04/23 10:49:16;;;;;;;7.53;6.80;;;;;;;20.86;54.59;99895.75;5025792;28;20222;-71
2023/04/23 10:51:46;;;;;;;6.50;5.90;;;;;;;21.30;55.92;99917.50;5028356;28;20201;-71
2023/04/23 10:54:15;;;;;;;7.07;6.37;;;;;;;21.62;53.22;99889.28;5025604;28;20210;-71
2023/04/23 10:56:42;;;;;;;7.10;6.40;;;;;;;21.81;52.38;99976.28;5027066;28;20198;-71
2023/04/23 10:59:19;;;;;;;7.07;6.33;;;;;;;21.74;50.72;100015.69;5026506;28;20219;-72
2023/04/23 11:01:51;;;;;;;7.93;7.23;;;;;;;21.33;50.24;100017.22;5021736;28;20205;-72
2023/04/23 11:04:27;;;;;;;7.70;6.90;;;;;;;21.54;51.74;100065.09;5008258;28;20979;-72
2023/04/23 11:07:07;;;;;;;7.60;6.80;;;;;;;21.88;50.96;100068.16;5027496;28;20186;-71
2023/04/23 11:09:37;;;;;;;7.57;6.83;;;;;;;20.71;53.43;100120.13;5019254;28;20257;-71